Time;durP1;ratioP1;P1;durP2;ratioP2;P2;SDS_P1;SDS_P2;PMS_P1;PMS_P2;Temp;Humidity;BMP_temperature;BMP_pressure;BME280_temperature;BME280_humidity;BME280_pressure;Samples;Min_cycle;Max_cycle;Signal;HPM_P1;HPM_P2
2021/10/07 07:47:24;;;;;;;;;;;;;;;;;;;;;
2021/10/07 08:01:11;;;;;;;;;;;;;;;;;;;;;
2021/10/07 08:11:12;;;;;;;;;;;;;;;;;;;;;
2021/10/07 08:13:55;;;;;;;;;;;;;;;;;;;;;
2021/10/07 08:16:50;;;;;;;;;;;;;;;;;;;;;
2021/10/07 08:19:31;;;;;;;;;;;;;;;;;;;;;
2021/10/07 08:22:14;;;;;;;;;9.75;9.75;;;;;14.54;65.58;102350.78;6276359;22;72381;-63
2021/10/07 08:24:39;;;;;;;;;8.00;8.00;;;;;14.69;65.30;102365.72;6250108;22;47008;-63
2021/10/07 08:27:14;;;;;;;;;10.00;9.00;;;;;14.52;65.57;102316.84;6277701;22;45307;-63
2021/10/07 08:33:47;;;;;;;;;;;;;;;;;;;;;
2021/10/07 08:51:51;;;;;;;;;12.25;11.00;;;;;15.34;64.93;102388.31;6159483;23;45976;-66
2021/10/07 09:27:47;;;;;;;;;;;;;;;;;;;;;
2021/10/07 10:49:23;;;;;;;;;8.75;7.50;;;;;16.81;61.00;102302.25;5894835;24;45543;-63
2021/10/07 10:52:03;;;;;;;;;;;;;;;;;;;;;
2021/10/07 10:55:19;;;;;;;;;;;;;;;;;;;;;
2021/10/07 10:58:23;;;;;;;;;8.25;7.50;;;;;17.13;60.26;102348.84;6166289;22;68679;-64
2021/10/07 11:05:30;;;;;;;;;;;;;;;;;;;;;
2021/10/07 11:14:36;;;;;;;;;8.50;6.75;;;;;17.18;60.81;102314.50;6078261;23;45994;-61
2021/10/07 11:24:53;;;;;;;;;;;;;;;;;;;;;
2021/10/07 11:45:00;;;;;;;;;;;;;;;;;;;;;
2021/10/07 11:48:22;;;;;;;;;;;;;;;;;;;;;
2021/10/07 12:01:22;;;;;;;;;;;;;;;;;;;;;
2021/10/07 12:04:29;;;;;;;;;;;;;;;;;;;;;
2021/10/07 12:17:43;;;;;;;;;;;;;;;;;;;;;
2021/10/07 12:20:38;;;;;;;;;;;;;;;;;;;;;
2021/10/07 12:30:45;;;;;;;;;;;;;;;;;;;;;
2021/10/07 12:41:05;;;;;;;;;;;;;;;;;;;;;
2021/10/07 12:47:39;;;;;;;;;;;;;;;;;;;;;
2021/10/07 12:56:46;;;;;;;;;2.00;2.00;;;;;17.95;54.63;102252.25;6264901;22;45354;-63
2021/10/07 13:03:36;;;;;;;;;;;;;;;;;;;;;
2021/10/07 13:10:04;;;;;;;;;;;;;;;;;;;;;
2021/10/07 13:27:22;;;;;;;;;;;;;;;;;;;;;
2021/10/07 13:30:36;;;;;;;;;;;;;;;;;;;;;
2021/10/07 13:47:51;;;;;;;;;;;;;;;;;;;;;
2021/10/07 14:15:18;;;;;;;;;;;;;;;;;;;;;
2021/10/07 14:22:04;;;;;;;;;;;;;;;;;;;;;
2021/10/07 14:32:36;;;;;;;;;;;;;;;;;;;;;
2021/10/07 14:36:05;;;;;;;;;;;;;;;;;;;;;
2021/10/07 14:39:13;;;;;;;;;;;;;;;;;;;;;
2021/10/07 14:53:16;;;;;;;;;;;;;;;;;;;;;
2021/10/07 15:28:00;;;;;;;;;;;;;;;;;;;;;
2021/10/07 15:45:02;;;;;;;;;;;;;;;;;;;;;
2021/10/07 15:48:26;;;;;;;;;;;;;;;;;;;;;
2021/10/07 16:42:28;;;;;;;;;;;;;;;;;;;;;
2021/10/07 17:10:02;;;;;;;;;;;;;;;;;;;;;
2021/10/07 17:13:36;;;;;;;;;;;;;;;;;;;;;
2021/10/07 17:57:42;;;;;;;;;;;;;;;;;;;;;
2021/10/07 18:00:10;;;;;;;;;5.50;4.50;;;;;17.97;51.19;102303.53;6244310;22;68862;-62
2021/10/07 18:06:23;;;;;;;;;;;;;;;;;;;;;
2021/10/07 18:09:50;;;;;;;;;3.50;3.50;;;;;17.96;52.26;102318.00;6372189;22;72914;-62
2021/10/07 18:12:38;;;;;;;;;;;;;;;;;;;;;
2021/10/07 18:15:04;;;;;;;;;5.25;4.25;;;;;17.94;52.17;102325.25;6372459;22;72917;-61
2021/10/07 18:17:31;;;;;;;;;5.25;5.25;;;;;17.81;52.32;102307.72;6373551;22;45807;-60
2021/10/07 18:19:56;;;;;;;;;4.50;4.50;;;;;17.84;52.73;102318.41;6371766;22;45318;-60
2021/10/07 18:22:22;;;;;;;;;6.00;6.00;;;;;17.95;52.03;102343.25;6373588;22;45472;-60
2021/10/07 18:28:29;;;;;;;;;4.00;4.00;;;;;17.78;52.23;102325.81;6337073;22;46071;-60
2021/10/07 18:30:55;;;;;;;;;6.50;6.25;;;;;17.87;52.34;102348.06;6344658;22;45353;-60
2021/10/07 18:33:21;;;;;;;;;5.75;5.75;;;;;17.84;52.03;102337.31;6374004;22;45328;-60
2021/10/07 18:35:47;;;;;;;;;6.75;6.50;;;;;17.84;52.66;102354.44;6373373;22;45208;-60
2021/10/07 18:38:13;;;;;;;;;5.75;5.00;;;;;17.86;52.75;102354.34;6373722;22;46433;-60
2021/10/07 18:40:39;;;;;;;;;7.50;5.75;;;;;17.80;52.73;102346.50;6373921;22;45173;-60
2021/10/07 18:43:05;;;;;;;;;6.25;6.25;;;;;17.81;52.72;102359.94;6374097;22;45304;-60
2021/10/07 18:45:31;;;;;;;;;7.25;6.50;;;;;17.62;52.79;102330.03;6373973;22;45373;-60
2021/10/07 18:47:56;;;;;;;;;9.50;8.50;;;;;17.67;52.32;102346.06;6373198;22;46184;-60
2021/10/07 18:50:22;;;;;;;;;8.00;6.75;;;;;17.53;52.12;102328.53;6371967;22;45748;-60
2021/10/07 18:52:48;;;;;;;;;8.00;8.00;;;;;17.68;52.44;102339.72;6373729;22;45389;-60
2021/10/07 18:55:14;;;;;;;;;7.25;7.25;;;;;17.63;52.84;102344.44;6373573;22;45301;-59
2021/10/07 18:57:39;;;;;;;;;7.00;6.25;;;;;17.51;52.14;102324.16;6344786;22;48140;-60
2021/10/07 19:00:08;;;;;;;;;5.50;5.50;;;;;17.69;52.31;102355.88;6345650;22;45405;-60
2021/10/07 19:02:34;;;;;;;;;6.00;6.00;;;;;17.51;52.74;102324.16;6373046;22;45253;-60
2021/10/07 19:04:59;;;;;;;;;10.75;7.25;;;;;17.59;52.51;102339.13;6373058;22;45234;-59
2021/10/07 19:07:25;;;;;;;;;7.00;6.00;;;;;17.50;53.01;102322.38;6344739;22;46154;-60
2021/10/07 19:09:50;;;;;;;;;6.75;6.75;;;;;17.55;53.17;102337.47;6345001;22;45951;-60
2021/10/07 19:12:16;;;;;;;;;8.00;8.00;;;;;17.38;53.21;102316.47;6371400;22;45575;-60
2021/10/07 19:14:41;;;;;;;;;8.25;8.25;;;;;17.38;53.65;102324.56;6340237;22;45798;-60
2021/10/07 19:17:07;;;;;;;;;9.25;8.75;;;;;17.45;53.00;102327.94;6367546;22;45907;-60
2021/10/07 19:19:32;;;;;;;;;11.50;10.00;;;;;17.51;53.01;102334.97;6367748;22;45791;-60
2021/10/07 19:21:58;;;;;;;;;10.00;9.50;;;;;17.47;53.23;102335.97;6340714;22;45690;-60
2021/10/07 19:24:23;;;;;;;;;10.50;9.00;;;;;17.51;53.00;102343.94;6368445;22;45493;-60
2021/10/07 19:26:49;;;;;;;;;7.75;7.50;;;;;17.49;53.60;102347.59;6367028;22;46332;-60
2021/10/07 19:29:15;;;;;;;;;12.25;10.00;;;;;17.43;53.60;102335.22;6361826;22;45414;-60
2021/10/07 19:31:42;;;;;;;;;11.00;9.50;;;;;17.50;53.52;102343.97;6355743;22;45893;-60
2021/10/07 19:34:08;;;;;;;;;7.50;7.50;;;;;17.32;53.80;102315.81;6370172;22;45455;-60
2021/10/07 19:36:33;;;;;;;;;9.75;9.50;;;;;17.27;53.72;102307.88;6400482;22;45416;-62
2021/10/07 19:38:59;;;;;;;;;13.50;10.50;;;;;17.36;53.84;102329.16;6398249;22;45353;-62
2021/10/07 19:41:27;;;;;;;;;10.25;9.50;;;;;17.23;54.00;102311.63;6371703;22;45313;-62
2021/10/07 19:43:53;;;;;;;;;7.50;6.00;;;;;17.26;54.31;102318.72;6397842;22;45365;-62
2021/10/07 19:46:18;;;;;;;;;9.75;9.25;;;;;17.21;53.48;102316.22;6397840;22;47905;-59
2021/10/07 19:48:44;;;;;;;;;11.75;9.50;;;;;17.28;53.72;102325.84;6400185;22;45419;-60
2021/10/07 19:51:12;;;;;;;;;9.25;9.25;;;;;17.28;53.78;102328.53;6372122;22;45457;-61
2021/10/07 19:53:39;;;;;;;;;9.75;9.00;;;;;17.33;54.15;102341.88;6400163;22;45545;-60
2021/10/07 19:56:05;;;;;;;;;11.00;11.00;;;;;17.10;53.30;102311.19;6400556;22;45614;-62
2021/10/07 19:58:30;;;;;;;;;7.75;7.75;;;;;17.08;53.69;102309.47;6400292;22;45305;-62
2021/10/07 20:00:56;;;;;;;;;9.50;9.50;;;;;16.99;53.76;102297.16;6372189;22;45452;-62
2021/10/07 20:03:22;;;;;;;;;10.50;9.50;;;;;17.22;54.39;102328.75;6400619;22;45576;-62
2021/10/07 20:05:47;;;;;;;;;10.00;9.75;;;;;17.21;53.83;102337.81;6400181;22;46269;-62
2021/10/07 20:08:13;;;;;;;;;9.50;9.50;;;;;17.00;54.08;102305.22;6398021;22;45455;-62
2021/10/07 20:10:38;;;;;;;;;9.25;9.25;;;;;17.02;54.04;102316.84;6400709;22;45364;-62
2021/10/07 20:13:06;;;;;;;;;10.25;9.50;;;;;17.18;54.20;102337.91;6400217;22;45473;-62
2021/10/07 20:15:34;;;;;;;;;13.25;9.75;;;;;17.06;54.01;102311.31;6399948;22;45773;-62
2021/10/07 20:18:00;;;;;;;;;9.75;8.50;;;;;17.00;54.40;102323.22;6398819;22;45600;-62
2021/10/07 20:20:26;;;;;;;;;8.50;8.00;;;;;17.18;54.13;102343.31;6400456;22;45416;-62
2021/10/07 20:22:54;;;;;;;;;12.25;11.00;;;;;17.11;54.25;102339.94;6398494;22;45826;-62
2021/10/07 20:25:22;;;;;;;;;13.25;10.75;;;;;17.14;54.08;102344.31;6371504;22;47367;-62
2021/10/07 20:27:48;;;;;;;;;9.50;9.50;;;;;17.09;54.06;102341.81;6371067;22;45453;-62
2021/10/07 20:30:15;;;;;;;;;9.25;9.25;;;;;17.13;53.95;102340.75;6400037;22;45298;-63
2021/10/07 20:32:41;;;;;;;;;10.75;10.50;;;;;17.14;54.10;102349.72;6340674;22;45411;-62
2021/10/07 20:35:14;;;;;;;;;10.00;10.00;;;;;16.91;53.87;102316.34;6368212;22;45817;-62
2021/10/07 20:37:40;;;;;;;;;11.50;9.75;;;;;16.95;53.98;102320.69;6341099;22;45312;-61
2021/10/07 20:40:08;;;;;;;;;10.00;9.25;;;;;17.01;54.04;102343.88;6368116;22;45802;-62
2021/10/07 20:42:34;;;;;;;;;10.25;9.75;;;;;16.80;53.88;102307.69;6365979;22;45499;-62
2021/10/07 20:45:02;;;;;;;;;10.25;10.00;;;;;17.06;54.45;102344.59;6368088;22;45500;-62
2021/10/07 20:47:28;;;;;;;;;12.00;10.75;;;;;16.92;54.25;102325.31;6367186;22;45652;-62
2021/10/07 20:49:54;;;;;;;;;9.50;9.00;;;;;16.94;54.47;102324.31;6368167;22;45746;-62
2021/10/07 20:52:19;;;;;;;;;9.00;9.00;;;;;16.87;54.08;102314.66;6368337;22;45705;-62
2021/10/07 20:54:45;;;;;;;;;10.75;10.00;;;;;16.87;54.29;102316.47;6367767;22;46519;-62
2021/10/07 20:57:10;;;;;;;;;10.00;10.00;;;;;16.94;54.12;102332.41;6368337;22;45352;-62
2021/10/07 20:59:38;;;;;;;;;10.50;9.00;;;;;16.81;54.43;102317.56;6339735;22;45410;-62
2021/10/07 21:02:08;;;;;;;;;9.50;9.00;;;;;16.89;54.41;102337.09;6367929;22;45950;-62
2021/10/07 21:04:34;;;;;;;;;10.00;9.25;;;;;16.78;54.84;102317.66;6367432;22;45811;-62
2021/10/07 21:07:00;;;;;;;;;10.00;10.00;;;;;16.81;54.26;102317.56;6365512;22;45634;-62
2021/10/07 21:09:26;;;;;;;;;9.00;9.00;;;;;16.92;54.31;102342.34;6367542;22;45637;-62
2021/10/07 21:11:51;;;;;;;;;11.00;11.00;;;;;16.87;54.18;102332.66;6339179;22;45988;-62
2021/10/07 21:14:17;;;;;;;;;9.00;7.75;;;;;16.89;54.13;102337.09;6367934;22;45894;-62
2021/10/07 21:16:42;;;;;;;;;9.00;9.00;;;;;16.93;53.83;102344.13;6367985;22;45863;-62
2021/10/07 21:19:08;;;;;;;;;10.50;10.25;;;;;16.63;53.98;102309.13;6366646;22;45683;-62
2021/10/07 21:21:33;;;;;;;;;8.00;8.00;;;;;16.80;54.48;102353.53;6339237;22;45895;-62
2021/10/07 21:23:59;;;;;;;;;9.00;7.50;;;;;16.51;54.25;102298.75;6339353;22;48914;-61
2021/10/07 21:26:24;;;;;;;;;9.25;8.25;;;;;16.73;54.58;102339.38;6367858;22;45674;-62
2021/10/07 21:28:50;;;;;;;;;7.25;7.25;;;;;16.77;54.68;102340.13;6367565;22;45429;-62
2021/10/07 21:31:16;;;;;;;;;8.25;8.00;;;;;16.84;54.89;102355.22;6366919;22;45475;-62
2021/10/07 21:33:41;;;;;;;;;9.50;9.50;;;;;16.61;54.84;102319.09;6339319;22;47716;-62
2021/10/07 21:36:10;;;;;;;;;8.00;8.00;;;;;16.67;54.91;102332.38;6339743;22;45638;-62
2021/10/07 21:38:35;;;;;;;;;10.00;8.75;;;;;16.81;54.70;102364.28;6339199;22;45241;-62
2021/10/07 21:41:01;;;;;;;;;13.75;11.75;;;;;16.59;54.82;102322.75;6368089;22;45360;-62
2021/10/07 21:43:31;;;;;;;;;3.75;3.75;;;;;16.72;54.60;102350.19;6366915;22;45471;-62
2021/10/07 21:45:56;;;;;;;;;9.25;9.25;;;;;16.65;54.43;102349.53;6366000;22;45345;-62
2021/10/07 21:48:22;;;;;;;;;9.75;9.00;;;;;16.65;54.64;102346.81;6338874;22;45726;-62
2021/10/07 21:50:48;;;;;;;;;10.75;9.50;;;;;16.76;54.92;102370.75;6367880;22;45590;-62
2021/10/07 21:53:13;;;;;;;;;11.75;9.00;;;;;16.40;54.58;102309.00;6338607;22;48075;-62
2021/10/07 21:55:39;;;;;;;;;13.25;9.50;;;;;16.49;54.86;102341.94;6367965;22;45641;-62
2021/10/07 21:58:07;;;;;;;;;11.75;11.50;;;;;16.59;54.79;102361.38;6371305;22;45404;-62
2021/10/07 22:00:40;;;;;;;;;13.25;11.50;;;;;16.42;54.90;102336.75;6370812;22;45473;-62
2021/10/07 22:03:05;;;;;;;;;11.75;10.00;;;;;16.40;54.97;102338.63;6372510;22;45255;-62
2021/10/07 22:05:32;;;;;;;;;11.75;11.25;;;;;16.40;55.04;102347.59;6372710;22;45433;-63
2021/10/07 22:08:00;;;;;;;;;12.25;11.25;;;;;16.35;55.23;102337.91;6370172;22;45395;-62
2021/10/07 22:10:25;;;;;;;;;11.75;11.75;;;;;16.36;55.20;102342.38;6372336;22;45330;-62
2021/10/07 22:12:53;;;;;;;;;13.50;12.00;;;;;16.53;55.42;102361.56;6343891;22;46593;-62
2021/10/07 22:15:18;;;;;;;;;12.25;11.25;;;;;16.46;55.68;102366.28;6372436;22;45159;-62
2021/10/07 22:17:46;;;;;;;;;12.00;10.25;;;;;16.53;55.72;102371.47;6372276;22;45155;-62
2021/10/07 22:20:13;;;;;;;;;17.00;13.50;;;;;16.24;55.90;102332.84;6372077;22;45497;-62
2021/10/07 22:22:41;;;;;;;;;16.50;15.75;;;;;16.42;55.78;102364.63;6371701;22;46408;-62
2021/10/07 22:25:10;;;;;;;;;14.75;13.00;;;;;16.25;55.85;102342.69;6372095;22;45151;-63
2021/10/07 22:27:36;;;;;;;;;14.00;14.00;;;;;16.20;56.00;102341.94;6372346;22;45278;-62
2021/10/07 22:30:01;;;;;;;;;18.25;17.00;;;;;16.24;56.20;102355.28;6372240;22;45413;-64
2021/10/07 22:32:27;;;;;;;;;17.25;16.75;;;;;15.94;56.36;102305.91;6343369;22;47405;-62
2021/10/07 22:34:53;;;;;;;;;16.75;15.00;;;;;16.16;56.51;102351.94;6404600;22;45292;-62
2021/10/07 22:37:18;;;;;;;;;21.50;19.50;;;;;16.10;56.31;102350.31;6404444;22;45308;-62
2021/10/07 22:39:44;;;;;;;;;18.50;16.00;;;;;15.84;56.42;102313.38;6404934;22;45326;-62
2021/10/07 22:42:09;;;;;;;;;15.75;15.75;;;;;16.21;56.57;102366.16;6406150;22;45901;-62
2021/10/07 22:44:35;;;;;;;;;14.00;12.50;;;;;15.97;56.66;102326.47;6406229;22;45379;-62
2021/10/07 22:47:10;;;;;;;;;;;;;;;;;;;;;
2021/10/07 22:49:36;;;;;;;;;15.25;14.50;;;;;16.15;56.92;102350.16;6401017;22;73976;-62
2021/10/07 22:52:02;;;;;;;;;14.00;12.75;;;;;16.27;56.87;102373.16;6376832;22;47347;-62
2021/10/07 22:54:30;;;;;;;;;12.25;11.00;;;;;16.12;57.35;102352.94;6377261;22;45504;-62
2021/10/07 22:56:56;;;;;;;;;11.75;11.00;;;;;16.11;56.85;102348.50;6406321;22;45706;-62
2021/10/07 22:59:21;;;;;;;;;14.75;12.50;;;;;16.22;57.01;102370.63;6405924;22;45511;-62
2021/10/07 23:01:47;;;;;;;;;15.25;14.50;;;;;16.20;56.98;102372.47;6377026;22;48441;-62
2021/10/07 23:04:12;;;;;;;;;13.50;12.50;;;;;16.03;57.61;102353.22;6377063;22;45230;-62
2021/10/07 23:06:38;;;;;;;;;11.75;11.00;;;;;16.05;57.10;102357.63;6406411;22;45554;-62
2021/10/07 23:09:03;;;;;;;;;12.25;12.00;;;;;16.06;57.32;102355.84;6405536;22;45403;-62
2021/10/07 23:11:29;;;;;;;;;12.00;11.75;;;;;16.20;57.42;102369.75;6377199;22;47062;-62
2021/10/07 23:13:54;;;;;;;;;14.00;12.75;;;;;15.93;57.36;102328.38;6377255;22;45320;-62
2021/10/07 23:16:20;;;;;;;;;11.75;11.25;;;;;16.05;57.49;102348.69;6406210;22;45332;-62
2021/10/07 23:18:50;;;;;;;;;11.25;9.00;;;;;16.04;57.37;102347.81;6405588;22;45256;-62
2021/10/07 23:21:17;;;;;;;;;12.00;11.50;;;;;16.02;57.20;102348.75;6350734;22;47000;-62
2021/10/07 23:23:53;;;;;;;;;;;;;;;;;;;;;
2021/10/07 23:26:19;;;;;;;;;14.00;12.00;;;;;16.20;57.67;102372.47;6404973;22;68012;-62
2021/10/07 23:28:47;;;;;;;;;11.00;10.25;;;;;16.14;57.61;102363.69;6405431;22;45503;-62
2021/10/07 23:31:12;;;;;;;;;9.00;8.75;;;;;16.18;57.86;102376.13;6394710;22;46225;-62
2021/10/07 23:33:38;;;;;;;;;12.50;10.75;;;;;16.01;57.86;102353.28;6373276;22;45147;-62
2021/10/07 23:36:06;;;;;;;;;11.25;8.50;;;;;15.97;57.89;102337.25;6373857;22;45203;-62
2021/10/07 23:38:31;;;;;;;;;9.75;9.75;;;;;16.06;58.07;102353.16;6372932;22;45344;-62
2021/10/07 23:40:57;;;;;;;;;9.25;9.25;;;;;16.04;57.85;102349.63;6318622;22;48650;-62
2021/10/07 23:43:23;;;;;;;;;7.75;6.75;;;;;16.05;58.14;102346.84;6344980;22;45725;-62
2021/10/07 23:45:48;;;;;;;;;10.00;9.00;;;;;16.07;58.05;102353.09;6344994;22;45277;-62
2021/10/07 23:48:16;;;;;;;;;9.25;8.00;;;;;16.18;58.30;102374.31;6373090;22;45300;-62
2021/10/07 23:50:44;;;;;;;;;9.50;8.75;;;;;16.11;58.46;102368.22;6345088;22;48422;-62
2021/10/07 23:53:13;;;;;;;;;6.50;6.50;;;;;15.95;58.36;102344.50;6344788;22;45910;-62
2021/10/07 23:55:41;;;;;;;;;9.50;9.00;;;;;16.19;58.35;102380.59;6373773;22;45285;-62
2021/10/07 23:58:06;;;;;;;;;8.00;7.00;;;;;16.16;58.45;102378.88;6373523;22;45499;-62
